TimeCST,TemperatureF,Dew PointF,Humidity,Sea Level PressureIn,VisibilityMPH,Wind Direction,Wind SpeedMPH,Gust SpeedMPH,PrecipitationIn,Events,Conditions,WindDirDegrees,DateUTC
12:15 AM,53.6,42.8,67,29.94,10.0,West,4.6,-,N/A,,Clear,280,2013-02-27 06:15:00
12:35 AM,53.6,42.8,67,29.94,7.0,WNW,3.5,-,N/A,,Clear,290,2013-02-27 06:35:00
1:15 AM,51.8,42.8,71,29.94,7.0,Calm,Calm,-,N/A,,Clear,0,2013-02-27 07:15:00
1:35 AM,51.8,42.8,71,29.94,10.0,Calm,Calm,-,N/A,,Clear,0,2013-02-27 07:35:00
1:55 AM,51.8,44.6,76,29.93,10.0,Calm,Calm,-,N/A,,Clear,0,2013-02-27 07:55:00
2:15 AM,50.0,44.6,82,29.93,10.0,Calm,Calm,-,N/A,,Clear,0,2013-02-27 08:15:00
2:35 AM,50.0,44.6,82,29.93,10.0,Calm,Calm,-,N/A,,Clear,0,2013-02-27 08:35:00
2:55 AM,50.0,44.6,82,29.93,10.0,Calm,Calm,-,N/A,,Clear,0,2013-02-27 08:55:00
6:35 AM,48.2,42.8,82,29.98,10.0,Calm,Calm,-,N/A,,Unknown,0,2013-02-27 12:35:00
6:55 AM,46.4,42.8,87,29.97,10.0,Calm,Calm,-,N/A,,Clear,0,2013-02-27 12:55:00
7:15 AM,48.2,44.6,87,29.98,10.0,Calm,Calm,-,N/A,,Clear,0,2013-02-27 13:15:00
7:35 AM,50.0,44.6,82,29.99,10.0,Calm,Calm,-,N/A,,Clear,0,2013-02-27 13:35:00
7:55 AM,51.8,44.6,76,30.00,7.0,Calm,Calm,-,N/A,,Clear,0,2013-02-27 13:55:00
8:15 AM,51.8,41.0,67,30.01,7.0,Calm,Calm,-,N/A,,Clear,0,2013-02-27 14:15:00
8:35 AM,53.6,41.0,62,30.01,7.0,Calm,Calm,-,N/A,,Clear,0,2013-02-27 14:35:00
8:55 AM,53.6,41.0,62,30.02,10.0,Calm,Calm,-,N/A,,Clear,0,2013-02-27 14:55:00
9:15 AM,55.4,41.0,58,30.02,7.0,Calm,Calm,-,N/A,,Clear,0,2013-02-27 15:15:00
9:35 AM,55.4,37.4,51,30.03,10.0,WNW,3.5,-,N/A,,Clear,300,2013-02-27 15:35:00
9:55 AM,57.2,37.4,48,30.03,7.0,NW,4.6,-,N/A,,Clear,310,2013-02-27 15:55:00
10:15 AM,59.0,35.6,42,30.03,7.0,WNW,4.6,-,N/A,,Clear,290,2013-02-27 16:15:00
10:35 AM,57.2,37.4,48,30.04,7.0,SW,3.5,-,N/A,,Clear,230,2013-02-27 16:35:00
10:55 AM,57.2,35.6,44,30.04,10.0,SW,3.5,-,N/A,,Clear,230,2013-02-27 16:55:00
11:15 AM,59.0,35.6,42,30.04,5.0,WSW,3.5,-,N/A,,Haze,240,2013-02-27 17:15:00
11:35 AM,59.0,35.6,42,30.04,7.0,Calm,Calm,-,N/A,,Clear,0,2013-02-27 17:35:00
11:55 AM,59.0,35.6,42,30.03,10.0,Calm,Calm,-,N/A,,Clear,0,2013-02-27 17:55:00
12:15 PM,60.8,37.4,42,30.03,10.0,WSW,5.8,-,N/A,,Clear,250,2013-02-27 18:15:00
12:35 PM,60.8,39.2,45,30.01,10.0,SSW,4.6,-,N/A,,Clear,210,2013-02-27 18:35:00
1:15 PM,60.8,37.4,42,30.00,10.0,South,5.8,-,N/A,,Clear,180,2013-02-27 19:15:00
1:35 PM,60.8,41.0,48,30.00,7.0,SSW,4.6,-,N/A,,Unknown,200,2013-02-27 19:35:00
1:55 PM,60.8,39.2,45,29.99,7.0,South,9.2,-,N/A,,Unknown,180,2013-02-27 19:55:00
2:15 PM,60.8,39.2,45,29.98,10.0,South,8.1,-,N/A,,Unknown,190,2013-02-27 20:15:00
2:55 PM,60.8,41.0,48,29.97,7.0,SSW,9.2,-,N/A,,Clear,210,2013-02-27 20:55:00
3:15 PM,60.8,42.8,52,29.97,7.0,South,9.2,-,N/A,,Clear,180,2013-02-27 21:15:00
3:35 PM,60.8,42.8,52,29.97,7.0,SW,6.9,-,N/A,,Clear,220,2013-02-27 21:35:00
3:55 PM,60.8,42.8,52,29.97,10.0,SW,9.2,16.1,N/A,,Clear,220,2013-02-27 21:55:00
4:15 PM,60.8,42.8,52,29.97,7.0,SW,9.2,-,N/A,,Clear,220,2013-02-27 22:15:00
4:35 PM,60.8,44.6,55,29.96,7.0,SSW,9.2,-,N/A,,Clear,210,2013-02-27 22:35:00
5:15 PM,60.8,46.4,59,29.97,7.0,SW,8.1,-,N/A,,Clear,230,2013-02-27 23:15:00
5:35 PM,59.0,46.4,63,29.97,7.0,SW,8.1,-,N/A,,Clear,220,2013-02-27 23:35:00
5:55 PM,59.0,46.4,63,29.97,7.0,SW,6.9,-,N/A,,Clear,230,2013-02-27 23:55:00
6:35 PM,57.2,48.2,72,29.98,10.0,SW,3.5,-,N/A,,Clear,220,2013-02-28 00:35:00
6:55 PM,57.2,50.0,77,29.98,10.0,Calm,Calm,-,N/A,,Clear,0,2013-02-28 00:55:00
7:15 PM,57.2,50.0,77,29.97,10.0,SSW,3.5,-,N/A,,Clear,210,2013-02-28 01:15:00
7:35 PM,57.2,50.0,77,29.97,10.0,SW,4.6,-,N/A,,Clear,230,2013-02-28 01:35:00
8:15 PM,59.0,50.0,72,29.98,10.0,SW,5.8,-,N/A,,Clear,220,2013-02-28 02:15:00
8:35 PM,59.0,50.0,72,29.98,10.0,SW,4.6,-,N/A,,Clear,220,2013-02-28 02:35:00
8:55 PM,59.0,51.8,77,29.98,10.0,SW,5.8,-,N/A,,Clear,220,2013-02-28 02:55:00
9:15 PM,59.0,51.8,77,29.98,7.0,SW,5.8,-,N/A,,Clear,220,2013-02-28 03:15:00
9:35 PM,59.0,51.8,77,29.98,10.0,SW,6.9,-,N/A,,Clear,230,2013-02-28 03:35:00
10:15 PM,59.0,51.8,77,29.98,10.0,SW,6.9,-,N/A,,Clear,230,2013-02-28 04:15:00
10:35 PM,59.0,51.8,77,29.98,10.0,WSW,6.9,-,N/A,,Clear,240,2013-02-28 04:35:00
11:35 PM,59.0,51.8,77,29.98,10.0,WSW,8.1,-,N/A,,Clear,240,2013-02-28 05:35:00